sensor_id;sensor_type;location;lat;lon;timestamp;temperature;humidity
66140;DHT22;52945;51.908;8.364;2023-06-01T00:00:21;18.20;56.70
66140;DHT22;52945;51.908;8.364;2023-06-01T00:03:22;18.20;56.00
66140;DHT22;52945;51.908;8.364;2023-06-01T00:06:23;18.20;56.20
66140;DHT22;52945;51.908;8.364;2023-06-01T00:09:24;18.10;55.90
66140;DHT22;52945;51.908;8.364;2023-06-01T00:12:24;17.70;57.10
66140;DHT22;52945;51.908;8.364;2023-06-01T00:15:25;17.70;57.20
66140;DHT22;52945;51.908;8.364;2023-06-01T00:18:25;17.70;57.80
66140;DHT22;52945;51.908;8.364;2023-06-01T00:21:27;17.70;57.50
66140;DHT22;52945;51.908;8.364;2023-06-01T00:24:31;17.70;57.10
66140;DHT22;52945;51.908;8.364;2023-06-01T00:27:32;17.70;57.40
66140;DHT22;52945;51.908;8.364;2023-06-01T00:30:34;17.70;57.00
66140;DHT22;52945;51.908;8.364;2023-06-01T00:33:34;17.60;57.50
66140;DHT22;52945;51.908;8.364;2023-06-01T00:36:35;17.70;57.10
66140;DHT22;52945;51.908;8.364;2023-06-01T00:39:36;17.60;57.40
66140;DHT22;52945;51.908;8.364;2023-06-01T00:42:36;17.50;57.40
66140;DHT22;52945;51.908;8.364;2023-06-01T00:45:37;17.40;57.20
66140;DHT22;52945;51.908;8.364;2023-06-01T00:48:40;17.30;57.60
66140;DHT22;52945;51.908;8.364;2023-06-01T00:51:41;17.30;57.60
66140;DHT22;52945;51.908;8.364;2023-06-01T00:54:42;16.90;58.40
66140;DHT22;52945;51.908;8.364;2023-06-01T00:57:43;16.70;58.30
66140;DHT22;52945;51.908;8.364;2023-06-01T01:00:43;16.70;59.10
66140;DHT22;52945;51.908;8.364;2023-06-01T01:03:48;16.60;58.60
66140;DHT22;52945;51.908;8.364;2023-06-01T01:07:02;16.40;59.10
66140;DHT22;52945;51.908;8.364;2023-06-01T01:16:46;16.20;58.70
66140;DHT22;52945;51.908;8.364;2023-06-01T01:20:02;16.20;58.90
66140;DHT22;52945;51.908;8.364;2023-06-01T01:24:03;16.20;58.90
66140;DHT22;52945;51.908;8.364;2023-06-01T01:30:15;16.00;59.30
66140;DHT22;52945;51.908;8.364;2023-06-01T01:33:18;16.00;59.10
66140;DHT22;52945;51.908;8.364;2023-06-01T01:36:19;16.10;59.10
66140;DHT22;52945;51.908;8.364;2023-06-01T01:39:20;16.00;59.00
66140;DHT22;52945;51.908;8.364;2023-06-01T01:42:21;16.10;58.80
66140;DHT22;52945;51.908;8.364;2023-06-01T01:45:21;16.10;58.70
66140;DHT22;52945;51.908;8.364;2023-06-01T01:51:55;15.80;59.70
66140;DHT22;52945;51.908;8.364;2023-06-01T01:54:57;15.90;58.50
66140;DHT22;52945;51.908;8.364;2023-06-01T01:57:59;15.90;58.40
66140;DHT22;52945;51.908;8.364;2023-06-01T02:01:01;15.60;59.40
66140;DHT22;52945;51.908;8.364;2023-06-01T02:04:04;15.50;60.00
66140;DHT22;52945;51.908;8.364;2023-06-01T02:07:07;15.60;59.60
66140;DHT22;52945;51.908;8.364;2023-06-01T02:10:08;15.70;59.10
66140;DHT22;52945;51.908;8.364;2023-06-01T02:13:09;15.70;58.70
66140;DHT22;52945;51.908;8.364;2023-06-01T02:16:10;15.80;59.00
66140;DHT22;52945;51.908;8.364;2023-06-01T02:19:10;15.70;59.10
66140;DHT22;52945;51.908;8.364;2023-06-01T02:22:11;15.60;59.50
66140;DHT22;52945;51.908;8.364;2023-06-01T02:25:12;15.60;59.90
66140;DHT22;52945;51.908;8.364;2023-06-01T02:28:12;15.60;59.50
66140;DHT22;52945;51.908;8.364;2023-06-01T02:31:13;15.50;59.60
66140;DHT22;52945;51.908;8.364;2023-06-01T02:34:17;15.50;59.60
66140;DHT22;52945;51.908;8.364;2023-06-01T02:37:18;15.40;59.80
66140;DHT22;52945;51.908;8.364;2023-06-01T02:40:18;15.40;60.10
66140;DHT22;52945;51.908;8.364;2023-06-01T02:43:19;15.50;59.80
66140;DHT22;52945;51.908;8.364;2023-06-01T02:46:20;15.40;59.70
66140;DHT22;52945;51.908;8.364;2023-06-01T02:49:21;15.50;59.90
66140;DHT22;52945;51.908;8.364;2023-06-01T02:52:21;15.40;60.10
66140;DHT22;52945;51.908;8.364;2023-06-01T02:55:22;15.30;60.60
66140;DHT22;52945;51.908;8.364;2023-06-01T02:58:22;15.30;60.50
66140;DHT22;52945;51.908;8.364;2023-06-01T03:01:23;15.30;60.40
66140;DHT22;52945;51.908;8.364;2023-06-01T03:04:24;15.30;60.60
66140;DHT22;52945;51.908;8.364;2023-06-01T03:07:24;15.40;60.30
66140;DHT22;52945;51.908;8.364;2023-06-01T03:10:25;15.40;60.30
66140;DHT22;52945;51.908;8.364;2023-06-01T03:13:27;15.30;60.30
66140;DHT22;52945;51.908;8.364;2023-06-01T03:16:28;15.30;60.10
66140;DHT22;52945;51.908;8.364;2023-06-01T03:19:29;15.10;60.80
66140;DHT22;52945;51.908;8.364;2023-06-01T03:22:30;15.10;60.90
66140;DHT22;52945;51.908;8.364;2023-06-01T03:25:31;14.90;61.20
66140;DHT22;52945;51.908;8.364;2023-06-01T03:28:32;15.00;61.30
66140;DHT22;52945;51.908;8.364;2023-06-01T03:31:32;15.10;61.20
66140;DHT22;52945;51.908;8.364;2023-06-01T03:34:34;15.20;60.60
66140;DHT22;52945;51.908;8.364;2023-06-01T03:37:38;15.10;60.90
66140;DHT22;52945;51.908;8.364;2023-06-01T03:40:39;15.10;60.80
66140;DHT22;52945;51.908;8.364;2023-06-01T03:43:40;15.00;61.10
66140;DHT22;52945;51.908;8.364;2023-06-01T03:46:40;15.10;61.00
66140;DHT22;52945;51.908;8.364;2023-06-01T03:49:44;15.10;61.20
66140;DHT22;52945;51.908;8.364;2023-06-01T03:52:45;15.10;61.00
66140;DHT22;52945;51.908;8.364;2023-06-01T03:55:46;15.10;61.20
66140;DHT22;52945;51.908;8.364;2023-06-01T03:58:49;15.10;61.20
66140;DHT22;52945;51.908;8.364;2023-06-01T04:01:50;15.10;61.00
66140;DHT22;52945;51.908;8.364;2023-06-01T04:04:51;15.10;60.80
66140;DHT22;52945;51.908;8.364;2023-06-01T04:07:53;14.90;61.20
66140;DHT22;52945;51.908;8.364;2023-06-01T04:10:55;14.90;61.10
66140;DHT22;52945;51.908;8.364;2023-06-01T04:13:55;14.90;61.10
66140;DHT22;52945;51.908;8.364;2023-06-01T04:16:56;15.00;60.80
66140;DHT22;52945;51.908;8.364;2023-06-01T04:19:56;15.00;60.80
66140;DHT22;52945;51.908;8.364;2023-06-01T04:22:57;14.90;60.90
66140;DHT22;52945;51.908;8.364;2023-06-01T04:25:58;14.90;60.80
66140;DHT22;52945;51.908;8.364;2023-06-01T04:29:00;14.90;61.20
66140;DHT22;52945;51.908;8.364;2023-06-01T04:32:00;14.90;61.30
66140;DHT22;52945;51.908;8.364;2023-06-01T04:35:02;14.90;61.30
66140;DHT22;52945;51.908;8.364;2023-06-01T04:38:05;15.00;61.10
66140;DHT22;52945;51.908;8.364;2023-06-01T04:41:06;15.00;61.00
66140;DHT22;52945;51.908;8.364;2023-06-01T04:44:07;15.00;61.00
66140;DHT22;52945;51.908;8.364;2023-06-01T04:47:09;15.10;60.70
66140;DHT22;52945;51.908;8.364;2023-06-01T04:50:10;15.10;60.70
66140;DHT22;52945;51.908;8.364;2023-06-01T04:53:13;15.20;60.40
66140;DHT22;52945;51.908;8.364;2023-06-01T04:56:13;15.20;60.20
66140;DHT22;52945;51.908;8.364;2023-06-01T04:59:14;15.20;60.30
66140;DHT22;52945;51.908;8.364;2023-06-01T05:02:15;15.20;60.10
66140;DHT22;52945;51.908;8.364;2023-06-01T05:05:16;15.30;60.30
66140;DHT22;52945;51.908;8.364;2023-06-01T05:08:17;15.20;60.40
66140;DHT22;52945;51.908;8.364;2023-06-01T05:11:17;15.30;60.40
66140;DHT22;52945;51.908;8.364;2023-06-01T05:14:18;15.20;60.30
66140;DHT22;52945;51.908;8.364;2023-06-01T05:17:19;15.30;60.10
66140;DHT22;52945;51.908;8.364;2023-06-01T05:20:19;15.30;60.10
66140;DHT22;52945;51.908;8.364;2023-06-01T05:23:20;15.30;60.10
66140;DHT22;52945;51.908;8.364;2023-06-01T05:26:21;15.40;59.70
66140;DHT22;52945;51.908;8.364;2023-06-01T05:29:22;15.30;59.40
66140;DHT22;52945;51.908;8.364;2023-06-01T05:32:23;15.40;59.70
66140;DHT22;52945;51.908;8.364;2023-06-01T05:35:23;15.30;59.30
66140;DHT22;52945;51.908;8.364;2023-06-01T05:38:24;15.30;59.50
66140;DHT22;52945;51.908;8.364;2023-06-01T05:41:25;15.20;59.80
66140;DHT22;52945;51.908;8.364;2023-06-01T05:44:26;15.20;59.60
66140;DHT22;52945;51.908;8.364;2023-06-01T05:47:26;15.20;59.40
66140;DHT22;52945;51.908;8.364;2023-06-01T05:50:27;15.30;59.40
66140;DHT22;52945;51.908;8.364;2023-06-01T05:53:27;15.30;59.20
66140;DHT22;52945;51.908;8.364;2023-06-01T05:56:30;15.30;59.00
66140;DHT22;52945;51.908;8.364;2023-06-01T05:59:31;15.30;59.00
66140;DHT22;52945;51.908;8.364;2023-06-01T06:02:31;15.20;59.00
66140;DHT22;52945;51.908;8.364;2023-06-01T06:05:32;15.10;59.90
66140;DHT22;52945;51.908;8.364;2023-06-01T06:08:32;15.10;59.80
66140;DHT22;52945;51.908;8.364;2023-06-01T06:11:33;15.20;59.70
66140;DHT22;52945;51.908;8.364;2023-06-01T06:14:34;15.20;59.70
66140;DHT22;52945;51.908;8.364;2023-06-01T06:17:34;15.40;59.40
66140;DHT22;52945;51.908;8.364;2023-06-01T06:20:35;15.40;59.30
66140;DHT22;52945;51.908;8.364;2023-06-01T06:23:35;15.50;59.20
66140;DHT22;52945;51.908;8.364;2023-06-01T06:26:37;15.50;59.20
66140;DHT22;52945;51.908;8.364;2023-06-01T06:29:38;15.60;59.20
66140;DHT22;52945;51.908;8.364;2023-06-01T06:32:38;15.60;59.10
66140;DHT22;52945;51.908;8.364;2023-06-01T06:35:39;15.60;59.00
66140;DHT22;52945;51.908;8.364;2023-06-01T06:38:42;15.70;59.10
66140;DHT22;52945;51.908;8.364;2023-06-01T06:41:42;15.70;59.10
66140;DHT22;52945;51.908;8.364;2023-06-01T06:44:43;15.80;58.80
66140;DHT22;52945;51.908;8.364;2023-06-01T06:47:43;15.80;58.80
66140;DHT22;52945;51.908;8.364;2023-06-01T06:50:45;15.80;59.00
66140;DHT22;52945;51.908;8.364;2023-06-01T06:53:46;15.80;58.80
66140;DHT22;52945;51.908;8.364;2023-06-01T06:56:47;15.70;58.50
66140;DHT22;52945;51.908;8.364;2023-06-01T06:59:48;15.80;58.90
66140;DHT22;52945;51.908;8.364;2023-06-01T07:02:49;15.80;59.00
66140;DHT22;52945;51.908;8.364;2023-06-01T07:05:50;15.80;58.80
66140;DHT22;52945;51.908;8.364;2023-06-01T07:08:50;15.90;58.70
66140;DHT22;52945;51.908;8.364;2023-06-01T07:11:51;15.70;58.80
66140;DHT22;52945;51.908;8.364;2023-06-01T07:14:53;15.80;58.90
66140;DHT22;52945;51.908;8.364;2023-06-01T07:17:53;15.70;59.40
66140;DHT22;52945;51.908;8.364;2023-06-01T07:20:54;15.80;59.20
66140;DHT22;52945;51.908;8.364;2023-06-01T07:23:55;15.70;59.80
66140;DHT22;52945;51.908;8.364;2023-06-01T07:26:56;15.70;59.50
66140;DHT22;52945;51.908;8.364;2023-06-01T07:29:57;15.80;59.30
66140;DHT22;52945;51.908;8.364;2023-06-01T07:32:58;15.90;59.30
66140;DHT22;52945;51.908;8.364;2023-06-01T07:35:58;16.00;59.20
66140;DHT22;52945;51.908;8.364;2023-06-01T07:38:59;16.00;58.90
66140;DHT22;52945;51.908;8.364;2023-06-01T07:42:00;16.00;58.70
66140;DHT22;52945;51.908;8.364;2023-06-01T07:45:01;16.00;58.70
66140;DHT22;52945;51.908;8.364;2023-06-01T07:48:02;16.10;58.80
66140;DHT22;52945;51.908;8.364;2023-06-01T07:51:03;16.10;58.90
66140;DHT22;52945;51.908;8.364;2023-06-01T07:54:04;16.10;58.90
66140;DHT22;52945;51.908;8.364;2023-06-01T07:57:05;16.20;58.50
66140;DHT22;52945;51.908;8.364;2023-06-01T08:00:06;16.20;58.70
66140;DHT22;52945;51.908;8.364;2023-06-01T08:03:10;16.20;58.60
66140;DHT22;52945;51.908;8.364;2023-06-01T08:06:11;16.30;58.70
66140;DHT22;52945;51.908;8.364;2023-06-01T08:09:11;16.30;58.80
66140;DHT22;52945;51.908;8.364;2023-06-01T08:12:14;16.20;58.70
66140;DHT22;52945;51.908;8.364;2023-06-01T08:15:15;16.30;58.80
66140;DHT22;52945;51.908;8.364;2023-06-01T08:18:16;16.30;58.90
66140;DHT22;52945;51.908;8.364;2023-06-01T08:21:18;16.20;59.10
66140;DHT22;52945;51.908;8.364;2023-06-01T08:24:18;16.30;58.60
66140;DHT22;52945;51.908;8.364;2023-06-01T08:27:25;16.20;59.10
66140;DHT22;52945;51.908;8.364;2023-06-01T08:30:28;16.20;59.40
66140;DHT22;52945;51.908;8.364;2023-06-01T08:33:28;16.40;59.20
66140;DHT22;52945;51.908;8.364;2023-06-01T08:36:29;16.40;58.80
66140;DHT22;52945;51.908;8.364;2023-06-01T08:39:31;16.50;58.30
66140;DHT22;52945;51.908;8.364;2023-06-01T08:45:46;16.60;58.20
66140;DHT22;52945;51.908;8.364;2023-06-01T08:48:52;16.60;58.30
66140;DHT22;52945;51.908;8.364;2023-06-01T08:51:55;16.70;57.90
66140;DHT22;52945;51.908;8.364;2023-06-01T08:54:58;16.50;58.60
66140;DHT22;52945;51.908;8.364;2023-06-01T08:58:00;16.60;58.90
66140;DHT22;52945;51.908;8.364;2023-06-01T09:01:02;16.60;58.70
66140;DHT22;52945;51.908;8.364;2023-06-01T09:04:03;16.60;58.90
66140;DHT22;52945;51.908;8.364;2023-06-01T09:07:04;16.70;58.60
66140;DHT22;52945;51.908;8.364;2023-06-01T09:10:05;16.70;58.80
66140;DHT22;52945;51.908;8.364;2023-06-01T09:13:07;16.70;58.70
66140;DHT22;52945;51.908;8.364;2023-06-01T09:16:09;16.70;58.60
66140;DHT22;52945;51.908;8.364;2023-06-01T09:19:10;16.70;58.20
66140;DHT22;52945;51.908;8.364;2023-06-01T09:22:11;16.70;58.20
66140;DHT22;52945;51.908;8.364;2023-06-01T09:25:15;16.80;58.00
66140;DHT22;52945;51.908;8.364;2023-06-01T09:28:16;16.70;58.00
66140;DHT22;52945;51.908;8.364;2023-06-01T09:31:39;16.80;58.30
66140;DHT22;52945;51.908;8.364;2023-06-01T09:34:44;16.90;58.10
66140;DHT22;52945;51.908;8.364;2023-06-01T09:37:55;16.90;58.10
66140;DHT22;52945;51.908;8.364;2023-06-01T09:41:01;17.00;57.70
66140;DHT22;52945;51.908;8.364;2023-06-01T09:44:02;17.10;57.90
66140;DHT22;52945;51.908;8.364;2023-06-01T09:47:07;17.10;57.90
66140;DHT22;52945;51.908;8.364;2023-06-01T09:50:10;17.20;57.90
66140;DHT22;52945;51.908;8.364;2023-06-01T09:53:13;17.20;57.80
66140;DHT22;52945;51.908;8.364;2023-06-01T09:56:14;17.20;57.70
66140;DHT22;52945;51.908;8.364;2023-06-01T09:59:16;17.20;57.50
66140;DHT22;52945;51.908;8.364;2023-06-01T10:02:19;17.20;57.60
66140;DHT22;52945;51.908;8.364;2023-06-01T10:05:22;17.30;57.70
66140;DHT22;52945;51.908;8.364;2023-06-01T10:08:23;17.20;57.80
66140;DHT22;52945;51.908;8.364;2023-06-01T10:11:24;17.20;57.70
66140;DHT22;52945;51.908;8.364;2023-06-01T10:14:26;17.30;57.90
66140;DHT22;52945;51.908;8.364;2023-06-01T10:17:27;17.40;57.60
66140;DHT22;52945;51.908;8.364;2023-06-01T10:20:28;17.50;57.80
66140;DHT22;52945;51.908;8.364;2023-06-01T10:23:29;17.40;57.60
66140;DHT22;52945;51.908;8.364;2023-06-01T10:26:33;17.50;57.40
66140;DHT22;52945;51.908;8.364;2023-06-01T10:29:36;17.50;57.60
66140;DHT22;52945;51.908;8.364;2023-06-01T10:38:41;17.70;57.60
66140;DHT22;52945;51.908;8.364;2023-06-01T10:41:42;17.70;57.50
66140;DHT22;52945;51.908;8.364;2023-06-01T10:47:44;17.40;58.10
66140;DHT22;52945;51.908;8.364;2023-06-01T10:51:18;17.50;57.70
66140;DHT22;52945;51.908;8.364;2023-06-01T10:54:29;17.50;57.80
66140;DHT22;52945;51.908;8.364;2023-06-01T10:57:30;17.60;57.60
66140;DHT22;52945;51.908;8.364;2023-06-01T11:00:38;17.70;57.50
66140;DHT22;52945;51.908;8.364;2023-06-01T11:03:46;17.80;57.30
66140;DHT22;52945;51.908;8.364;2023-06-01T11:06:47;17.80;57.30
66140;DHT22;52945;51.908;8.364;2023-06-01T11:09:48;17.90;57.00
66140;DHT22;52945;51.908;8.364;2023-06-01T11:13:13;17.90;56.90
66140;DHT22;52945;51.908;8.364;2023-06-01T11:19:25;17.90;57.10
66140;DHT22;52945;51.908;8.364;2023-06-01T11:22:33;17.90;57.00
66140;DHT22;52945;51.908;8.364;2023-06-01T11:25:35;18.00;56.80
66140;DHT22;52945;51.908;8.364;2023-06-01T11:28:36;18.10;56.90
66140;DHT22;52945;51.908;8.364;2023-06-01T11:31:42;18.10;56.90
66140;DHT22;52945;51.908;8.364;2023-06-01T11:34:43;18.20;56.80
66140;DHT22;52945;51.908;8.364;2023-06-01T11:37:46;18.20;56.90
66140;DHT22;52945;51.908;8.364;2023-06-01T11:41:03;18.20;56.40
66140;DHT22;52945;51.908;8.364;2023-06-01T11:44:04;18.30;56.30
66140;DHT22;52945;51.908;8.364;2023-06-01T11:47:06;18.30;56.20
66140;DHT22;52945;51.908;8.364;2023-06-01T11:50:09;18.30;56.30
66140;DHT22;52945;51.908;8.364;2023-06-01T11:53:20;18.30;56.00
66140;DHT22;52945;51.908;8.364;2023-06-01T11:56:26;18.30;56.60
66140;DHT22;52945;51.908;8.364;2023-06-01T11:59:41;18.20;56.60
66140;DHT22;52945;51.908;8.364;2023-06-01T12:02:42;18.30;56.50
66140;DHT22;52945;51.908;8.364;2023-06-01T12:05:43;18.30;56.40
66140;DHT22;52945;51.908;8.364;2023-06-01T12:08:52;18.40;56.90
66140;DHT22;52945;51.908;8.364;2023-06-01T12:11:54;18.30;56.70
66140;DHT22;52945;51.908;8.364;2023-06-01T12:14:55;18.30;56.60
66140;DHT22;52945;51.908;8.364;2023-06-01T12:17:56;18.30;56.80
66140;DHT22;52945;51.908;8.364;2023-06-01T12:20:57;18.30;56.50
66140;DHT22;52945;51.908;8.364;2023-06-01T12:23:57;18.30;56.70
66140;DHT22;52945;51.908;8.364;2023-06-01T12:26:59;18.30;57.40
66140;DHT22;52945;51.908;8.364;2023-06-01T12:30:00;18.30;57.00
66140;DHT22;52945;51.908;8.364;2023-06-01T12:33:04;18.20;57.00
66140;DHT22;52945;51.908;8.364;2023-06-01T12:36:07;18.20;57.10
66140;DHT22;52945;51.908;8.364;2023-06-01T12:39:09;18.20;56.90
66140;DHT22;52945;51.908;8.364;2023-06-01T12:42:10;18.30;57.20
66140;DHT22;52945;51.908;8.364;2023-06-01T12:45:11;18.40;57.40
66140;DHT22;52945;51.908;8.364;2023-06-01T12:48:31;18.40;57.10
66140;DHT22;52945;51.908;8.364;2023-06-01T12:51:35;18.40;56.90
66140;DHT22;52945;51.908;8.364;2023-06-01T12:54:36;18.40;57.20
66140;DHT22;52945;51.908;8.364;2023-06-01T12:57:37;18.50;57.10
66140;DHT22;52945;51.908;8.364;2023-06-01T13:00:38;18.50;56.60
66140;DHT22;52945;51.908;8.364;2023-06-01T13:03:38;18.40;56.50
66140;DHT22;52945;51.908;8.364;2023-06-01T13:06:39;18.40;56.70
66140;DHT22;52945;51.908;8.364;2023-06-01T13:09:40;18.50;56.70
66140;DHT22;52945;51.908;8.364;2023-06-01T13:12:42;18.50;56.40
66140;DHT22;52945;51.908;8.364;2023-06-01T13:15:43;18.50;56.50
66140;DHT22;52945;51.908;8.364;2023-06-01T13:18:45;18.60;56.50
66140;DHT22;52945;51.908;8.364;2023-06-01T13:21:46;18.60;56.60
66140;DHT22;52945;51.908;8.364;2023-06-01T13:24:48;18.70;56.30
66140;DHT22;52945;51.908;8.364;2023-06-01T13:27:49;18.60;56.00
66140;DHT22;52945;51.908;8.364;2023-06-01T13:30:51;18.70;55.60
66140;DHT22;52945;51.908;8.364;2023-06-01T13:33:55;18.70;56.10
66140;DHT22;52945;51.908;8.364;2023-06-01T13:36:59;18.70;55.80
66140;DHT22;52945;51.908;8.364;2023-06-01T13:40:00;18.80;55.10
66140;DHT22;52945;51.908;8.364;2023-06-01T13:43:01;18.80;55.50
66140;DHT22;52945;51.908;8.364;2023-06-01T13:46:01;18.90;55.10
66140;DHT22;52945;51.908;8.364;2023-06-01T13:49:03;19.10;54.60
66140;DHT22;52945;51.908;8.364;2023-06-01T13:52:05;19.10;54.00
66140;DHT22;52945;51.908;8.364;2023-06-01T13:55:05;19.20;54.10
66140;DHT22;52945;51.908;8.364;2023-06-01T13:58:07;19.20;54.30
66140;DHT22;52945;51.908;8.364;2023-06-01T14:01:07;19.00;54.10
66140;DHT22;52945;51.908;8.364;2023-06-01T14:04:08;18.90;54.20
66140;DHT22;52945;51.908;8.364;2023-06-01T14:07:08;18.90;54.60
66140;DHT22;52945;51.908;8.364;2023-06-01T14:10:10;19.00;54.40
66140;DHT22;52945;51.908;8.364;2023-06-01T14:13:11;19.10;54.50
66140;DHT22;52945;51.908;8.364;2023-06-01T14:16:11;19.00;54.60
66140;DHT22;52945;51.908;8.364;2023-06-01T14:19:12;19.10;53.70
66140;DHT22;52945;51.908;8.364;2023-06-01T14:22:13;19.20;53.60
66140;DHT22;52945;51.908;8.364;2023-06-01T14:25:13;19.20;53.60
66140;DHT22;52945;51.908;8.364;2023-06-01T14:28:14;19.20;53.30
66140;DHT22;52945;51.908;8.364;2023-06-01T14:31:14;19.30;53.10
66140;DHT22;52945;51.908;8.364;2023-06-01T14:34:15;19.30;53.20
66140;DHT22;52945;51.908;8.364;2023-06-01T14:37:16;19.20;52.90
66140;DHT22;52945;51.908;8.364;2023-06-01T14:40:17;19.30;53.00
66140;DHT22;52945;51.908;8.364;2023-06-01T14:43:17;19.40;53.30
66140;DHT22;52945;51.908;8.364;2023-06-01T14:46:18;19.40;53.40
66140;DHT22;52945;51.908;8.364;2023-06-01T14:49:21;19.50;53.50
66140;DHT22;52945;51.908;8.364;2023-06-01T14:52:22;19.50;52.40
66140;DHT22;52945;51.908;8.364;2023-06-01T14:55:22;19.50;52.80
66140;DHT22;52945;51.908;8.364;2023-06-01T14:58:23;19.60;52.50
66140;DHT22;52945;51.908;8.364;2023-06-01T15:01:23;19.60;52.40
66140;DHT22;52945;51.908;8.364;2023-06-01T15:04:24;19.60;52.50
66140;DHT22;52945;51.908;8.364;2023-06-01T15:07:25;19.70;53.00
66140;DHT22;52945;51.908;8.364;2023-06-01T15:10:26;19.60;52.90
66140;DHT22;52945;51.908;8.364;2023-06-01T15:13:26;19.50;53.00
66140;DHT22;52945;51.908;8.364;2023-06-01T15:16:27;19.50;53.50
66140;DHT22;52945;51.908;8.364;2023-06-01T15:19:28;19.40;53.10
66140;DHT22;52945;51.908;8.364;2023-06-01T15:22:28;19.40;53.10
66140;DHT22;52945;51.908;8.364;2023-06-01T15:25:29;19.40;53.40
66140;DHT22;52945;51.908;8.364;2023-06-01T15:28:29;19.40;53.60
66140;DHT22;52945;51.908;8.364;2023-06-01T15:31:30;19.20;53.70
66140;DHT22;52945;51.908;8.364;2023-06-01T15:34:30;19.20;54.40
66140;DHT22;52945;51.908;8.364;2023-06-01T15:37:31;19.00;54.80
66140;DHT22;52945;51.908;8.364;2023-06-01T15:40:32;19.10;55.00
66140;DHT22;52945;51.908;8.364;2023-06-01T15:43:36;19.20;54.70
66140;DHT22;52945;51.908;8.364;2023-06-01T15:46:37;19.20;54.30
66140;DHT22;52945;51.908;8.364;2023-06-01T15:49:41;19.20;54.50
66140;DHT22;52945;51.908;8.364;2023-06-01T15:52:43;19.20;54.40
66140;DHT22;52945;51.908;8.364;2023-06-01T15:55:44;19.20;53.80
66140;DHT22;52945;51.908;8.364;2023-06-01T15:58:44;19.30;53.80
66140;DHT22;52945;51.908;8.364;2023-06-01T16:01:48;19.40;53.90
66140;DHT22;52945;51.908;8.364;2023-06-01T16:04:48;19.30;53.70
66140;DHT22;52945;51.908;8.364;2023-06-01T16:07:49;19.30;53.60
66140;DHT22;52945;51.908;8.364;2023-06-01T16:10:51;19.40;53.20
66140;DHT22;52945;51.908;8.364;2023-06-01T16:13:51;19.40;52.60
66140;DHT22;52945;51.908;8.364;2023-06-01T16:16:52;19.40;52.40
66140;DHT22;52945;51.908;8.364;2023-06-01T16:19:52;19.50;52.00
66140;DHT22;52945;51.908;8.364;2023-06-01T16:22:53;19.50;51.40
66140;DHT22;52945;51.908;8.364;2023-06-01T16:25:53;19.50;51.60
66140;DHT22;52945;51.908;8.364;2023-06-01T16:28:54;19.60;51.30
66140;DHT22;52945;51.908;8.364;2023-06-01T16:31:56;19.60;51.40
66140;DHT22;52945;51.908;8.364;2023-06-01T16:34:57;19.60;51.80
66140;DHT22;52945;51.908;8.364;2023-06-01T16:37:57;19.60;51.80
66140;DHT22;52945;51.908;8.364;2023-06-01T16:40:58;19.60;51.70
66140;DHT22;52945;51.908;8.364;2023-06-01T16:44:00;19.50;51.30
66140;DHT22;52945;51.908;8.364;2023-06-01T16:47:00;19.50;51.50
66140;DHT22;52945;51.908;8.364;2023-06-01T16:50:01;19.50;51.60
66140;DHT22;52945;51.908;8.364;2023-06-01T16:53:02;19.30;51.10
66140;DHT22;52945;51.908;8.364;2023-06-01T16:56:03;19.30;50.80
66140;DHT22;52945;51.908;8.364;2023-06-01T16:59:04;19.20;50.40
66140;DHT22;52945;51.908;8.364;2023-06-01T17:02:04;19.30;50.20
66140;DHT22;52945;51.908;8.364;2023-06-01T17:05:05;19.20;50.50
66140;DHT22;52945;51.908;8.364;2023-06-01T17:08:06;19.20;50.60
66140;DHT22;52945;51.908;8.364;2023-06-01T17:11:07;19.20;50.60
66140;DHT22;52945;51.908;8.364;2023-06-01T17:14:07;19.10;51.00
66140;DHT22;52945;51.908;8.364;2023-06-01T17:17:08;19.10;51.00
66140;DHT22;52945;51.908;8.364;2023-06-01T17:20:10;19.10;50.90
66140;DHT22;52945;51.908;8.364;2023-06-01T17:23:11;19.10;51.10
66140;DHT22;52945;51.908;8.364;2023-06-01T17:26:11;19.10;51.40
66140;DHT22;52945;51.908;8.364;2023-06-01T17:29:12;19.10;51.40
66140;DHT22;52945;51.908;8.364;2023-06-01T17:32:12;19.00;51.60
66140;DHT22;52945;51.908;8.364;2023-06-01T17:35:13;19.00;51.60
66140;DHT22;52945;51.908;8.364;2023-06-01T17:38:13;19.00;51.80
66140;DHT22;52945;51.908;8.364;2023-06-01T17:41:14;19.00;52.20
66140;DHT22;52945;51.908;8.364;2023-06-01T17:44:15;19.00;52.30
66140;DHT22;52945;51.908;8.364;2023-06-01T17:47:16;19.00;52.00
66140;DHT22;52945;51.908;8.364;2023-06-01T17:50:17;19.00;52.00
66140;DHT22;52945;51.908;8.364;2023-06-01T17:53:17;19.00;51.60
66140;DHT22;52945;51.908;8.364;2023-06-01T17:56:18;19.00;51.10
66140;DHT22;52945;51.908;8.364;2023-06-01T17:59:18;19.00;51.20
66140;DHT22;52945;51.908;8.364;2023-06-01T18:02:19;19.00;51.20
66140;DHT22;52945;51.908;8.364;2023-06-01T18:05:20;19.00;51.30
66140;DHT22;52945;51.908;8.364;2023-06-01T18:08:21;19.00;51.30
66140;DHT22;52945;51.908;8.364;2023-06-01T18:11:21;19.10;51.10
66140;DHT22;52945;51.908;8.364;2023-06-01T18:14:23;19.00;50.40
66140;DHT22;52945;51.908;8.364;2023-06-01T18:17:24;18.90;50.10
66140;DHT22;52945;51.908;8.364;2023-06-01T18:20:24;18.80;50.30
66140;DHT22;52945;51.908;8.364;2023-06-01T18:23:25;18.80;50.50
66140;DHT22;52945;51.908;8.364;2023-06-01T18:26:25;18.70;50.50
66140;DHT22;52945;51.908;8.364;2023-06-01T18:29:26;18.70;50.90
66140;DHT22;52945;51.908;8.364;2023-06-01T18:32:26;18.60;51.70
66140;DHT22;52945;51.908;8.364;2023-06-01T18:35:27;18.40;52.40
66140;DHT22;52945;51.908;8.364;2023-06-01T18:38:28;18.50;52.60
66140;DHT22;52945;51.908;8.364;2023-06-01T18:41:28;18.50;52.70
66140;DHT22;52945;51.908;8.364;2023-06-01T18:44:29;18.40;52.50
66140;DHT22;52945;51.908;8.364;2023-06-01T18:47:29;18.30;52.70
66140;DHT22;52945;51.908;8.364;2023-06-01T18:50:30;18.20;52.90
66140;DHT22;52945;51.908;8.364;2023-06-01T18:53:31;18.20;52.70
66140;DHT22;52945;51.908;8.364;2023-06-01T18:56:32;18.20;52.70
66140;DHT22;52945;51.908;8.364;2023-06-01T18:59:33;18.00;52.70
66140;DHT22;52945;51.908;8.364;2023-06-01T19:02:35;17.90;52.60
66140;DHT22;52945;51.908;8.364;2023-06-01T19:05:36;17.90;52.40
66140;DHT22;52945;51.908;8.364;2023-06-01T19:08:37;17.50;53.40
66140;DHT22;52945;51.908;8.364;2023-06-01T19:11:40;17.40;53.60
66140;DHT22;52945;51.908;8.364;2023-06-01T19:14:40;17.40;53.60
66140;DHT22;52945;51.908;8.364;2023-06-01T19:17:43;17.50;53.30
66140;DHT22;52945;51.908;8.364;2023-06-01T19:21:05;17.40;52.90
66140;DHT22;52945;51.908;8.364;2023-06-01T19:24:09;17.40;52.80
66140;DHT22;52945;51.908;8.364;2023-06-01T19:27:15;17.40;52.90
66140;DHT22;52945;51.908;8.364;2023-06-01T19:30:16;17.40;52.70
66140;DHT22;52945;51.908;8.364;2023-06-01T19:33:17;17.20;52.90
66140;DHT22;52945;51.908;8.364;2023-06-01T19:39:44;17.20;52.70